sensor_id;sensor_type;location;lat;lon;timestamp;pressure;altitude;pressure_sealevel;temperature;humidity
21664;BME280;10993;52.510;13.456;2023-03-23T00:01:38;56702.53;;;-146.93;55.84
21664;BME280;10993;52.510;13.456;2023-03-23T00:06:39;56702.53;;;-146.93;55.81
21664;BME280;10993;52.510;13.456;2023-03-23T00:11:41;56682.28;;;-146.93;56.35
21664;BME280;10993;52.510;13.456;2023-03-23T00:16:42;56708.59;;;-146.93;57.03
21664;BME280;10993;52.510;13.456;2023-03-23T00:21:43;56696.44;;;-146.93;57.32
21664;BME280;10993;52.510;13.456;2023-03-23T00:26:46;56888.81;;;-146.93;57.07
21664;BME280;10993;52.510;13.456;2023-03-23T00:31:47;56686.31;;;-146.93;57.56
21664;BME280;10993;52.510;13.456;2023-03-23T00:36:48;56714.66;;;-146.93;57.02
21664;BME280;10993;52.510;13.456;2023-03-23T00:41:51;56653.94;;;-146.93;57.39
21664;BME280;10993;52.510;13.456;2023-03-23T00:46:51;56678.22;;;-146.93;57.10
21664;BME280;10993;52.510;13.456;2023-03-23T00:51:52;56585.09;;;-146.93;57.94
21664;BME280;10993;52.510;13.456;2023-03-23T00:56:55;56670.13;;;-146.93;57.61
21664;BME280;10993;52.510;13.456;2023-03-23T01:01:55;56657.97;;;-146.93;57.82
21664;BME280;10993;52.510;13.456;2023-03-23T01:06:55;56714.66;;;-146.93;58.06
21664;BME280;10993;52.510;13.456;2023-03-23T01:11:57;56653.94;;;-146.93;58.74
21664;BME280;10993;52.510;13.456;2023-03-23T01:16:58;56609.38;;;-146.93;58.43
21664;BME280;10993;52.510;13.456;2023-03-23T01:21:58;56647.84;;;-146.93;58.76
21664;BME280;10993;52.510;13.456;2023-03-23T01:27:00;56639.75;;;-146.93;59.47
21664;BME280;10993;52.510;13.456;2023-03-23T01:32:06;56670.13;;;-146.93;59.31
21664;BME280;10993;52.510;13.456;2023-03-23T01:37:06;56637.72;;;-146.93;59.67
21664;BME280;10993;52.510;13.456;2023-03-23T01:42:09;56560.78;;;-146.93;59.74
21664;BME280;10993;52.510;13.456;2023-03-23T01:47:09;57229.00;;;-146.93;59.88
21664;BME280;10993;52.510;13.456;2023-03-23T01:52:14;56660.00;;;-146.93;59.67
21664;BME280;10993;52.510;13.456;2023-03-23T01:57:21;56625.59;;;-146.93;60.55
21664;BME280;10993;52.510;13.456;2023-03-23T02:02:23;56852.34;;;-146.93;59.33
21664;BME280;10993;52.510;13.456;2023-03-23T02:07:24;56674.19;;;-146.93;59.65
21664;BME280;10993;52.510;13.456;2023-03-23T02:12:26;56653.94;;;-146.93;59.16
21664;BME280;10993;52.510;13.456;2023-03-23T02:17:30;56682.28;;;-146.93;58.72
21664;BME280;10993;52.510;13.456;2023-03-23T02:22:47;56589.13;;;-146.93;58.84
21664;BME280;10993;52.510;13.456;2023-03-23T02:33:36;56660.00;;;-146.93;58.00
21664;BME280;10993;52.510;13.456;2023-03-23T02:38:42;56714.66;;;-146.93;57.42
21664;BME280;10993;52.510;13.456;2023-03-23T02:43:45;56682.28;;;-146.93;56.62
21664;BME280;10993;52.510;13.456;2023-03-23T02:48:50;56712.66;;;-146.93;56.40
21664;BME280;10993;52.510;13.456;2023-03-23T02:53:53;56722.78;;;-146.93;56.96
21664;BME280;10993;52.510;13.456;2023-03-23T02:58:56;56706.56;;;-146.93;59.12
21664;BME280;10993;52.510;13.456;2023-03-23T03:04:00;56635.72;;;-146.93;60.90
21664;BME280;10993;52.510;13.456;2023-03-23T03:09:05;56854.38;;;-146.93;61.98
21664;BME280;10993;52.510;13.456;2023-03-23T03:14:10;56684.31;;;-146.93;60.89
21664;BME280;10993;52.510;13.456;2023-03-23T03:19:22;56641.78;;;-146.93;60.56
21664;BME280;10993;52.510;13.456;2023-03-23T03:24:27;56690.38;;;-146.93;59.51
21664;BME280;10993;52.510;13.456;2023-03-23T03:29:33;57591.50;;;-146.93;60.82
21664;BME280;10993;52.510;13.456;2023-03-23T03:34:36;56702.53;;;-146.93;61.80
21664;BME280;10993;52.510;13.456;2023-03-23T03:39:36;56684.31;;;-146.93;61.27
21664;BME280;10993;52.510;13.456;2023-03-23T03:44:37;56712.66;;;-146.93;61.43
21664;BME280;10993;52.510;13.456;2023-03-23T03:49:39;56664.06;;;-146.93;62.15
21664;BME280;10993;52.510;13.456;2023-03-23T03:54:39;56734.91;;;-146.93;64.52
21664;BME280;10993;52.510;13.456;2023-03-23T03:59:40;56670.13;;;-146.93;66.44
21664;BME280;10993;52.510;13.456;2023-03-23T04:04:42;56672.16;;;-146.93;67.65
21664;BME280;10993;52.510;13.456;2023-03-23T04:09:43;56662.03;;;-146.93;67.53
21664;BME280;10993;52.510;13.456;2023-03-23T04:14:46;56605.34;;;-146.93;67.64
21664;BME280;10993;52.510;13.456;2023-03-23T04:19:48;56668.09;;;-146.93;66.86
21664;BME280;10993;52.510;13.456;2023-03-23T04:24:48;56635.72;;;-146.93;66.13
21664;BME280;10993;52.510;13.456;2023-03-23T04:29:49;56664.06;;;-146.93;66.71
21664;BME280;10993;52.510;13.456;2023-03-23T04:34:51;56684.31;;;-146.93;66.97
21664;BME280;10993;52.510;13.456;2023-03-23T04:39:51;56660.00;;;-146.93;67.49
21664;BME280;10993;52.510;13.456;2023-03-23T04:45:00;56653.94;;;-146.93;68.56
21664;BME280;10993;52.510;13.456;2023-03-23T04:50:07;56633.69;;;-146.93;70.10
21664;BME280;10993;52.510;13.456;2023-03-23T04:55:08;56660.00;;;-146.93;70.58
21664;BME280;10993;52.510;13.456;2023-03-23T05:00:10;56621.53;;;-146.93;70.35
21664;BME280;10993;52.510;13.456;2023-03-23T05:05:19;56629.63;;;-146.93;69.64
21664;BME280;10993;52.510;13.456;2023-03-23T05:10:19;56649.88;;;-146.93;68.40
21664;BME280;10993;52.510;13.456;2023-03-23T05:15:20;56639.75;;;-146.93;71.66
21664;BME280;10993;52.510;13.456;2023-03-23T05:20:22;56609.38;;;-146.93;74.19
21664;BME280;10993;52.510;13.456;2023-03-23T05:25:22;56570.91;;;-146.93;75.55
21664;BME280;10993;52.510;13.456;2023-03-23T05:30:23;56625.59;;;-146.93;76.05
21664;BME280;10993;52.510;13.456;2023-03-23T05:35:25;56621.53;;;-146.93;76.03
21664;BME280;10993;52.510;13.456;2023-03-23T05:40:25;56682.28;;;-146.93;76.14
21664;BME280;10993;52.510;13.456;2023-03-23T05:45:26;56617.47;;;-146.93;76.88
21664;BME280;10993;52.510;13.456;2023-03-23T05:50:27;56627.59;;;-146.93;76.97
21664;BME280;10993;52.510;13.456;2023-03-23T05:55:28;56662.03;;;-146.93;77.97
21664;BME280;10993;52.510;13.456;2023-03-23T06:00:29;56743.03;;;-146.93;79.04
21664;BME280;10993;52.510;13.456;2023-03-23T06:05:31;56566.88;;;-146.93;80.09
21664;BME280;10993;52.510;13.456;2023-03-23T06:10:32;56615.47;;;-146.93;81.42
21664;BME280;10993;52.510;13.456;2023-03-23T06:15:36;56660.00;;;-146.93;82.97
21664;BME280;10993;52.510;13.456;2023-03-23T06:20:38;56631.66;;;-146.93;84.39
21664;BME280;10993;52.510;13.456;2023-03-23T06:25:39;56629.63;;;-146.93;84.78
21664;BME280;10993;52.510;13.456;2023-03-23T06:30:40;56621.53;;;-146.93;85.20
21664;BME280;10993;52.510;13.456;2023-03-23T06:35:41;56615.47;;;-146.93;85.66
21664;BME280;10993;52.510;13.456;2023-03-23T06:40:43;56544.59;;;-146.93;86.30
21664;BME280;10993;52.510;13.456;2023-03-23T06:45:47;56453.47;;;-146.93;86.22
21664;BME280;10993;52.510;13.456;2023-03-23T06:50:48;56633.69;;;-146.93;86.07
21664;BME280;10993;52.510;13.456;2023-03-23T06:55:49;56645.81;;;-146.93;85.71
21664;BME280;10993;52.510;13.456;2023-03-23T07:00:53;56625.59;;;-146.93;85.79
21664;BME280;10993;52.510;13.456;2023-03-23T07:05:57;56540.53;;;-146.93;85.02
21664;BME280;10993;52.510;13.456;2023-03-23T07:10:57;56676.19;;;-146.93;85.19
21664;BME280;10993;52.510;13.456;2023-03-23T07:15:57;56625.59;;;-146.93;85.48
21664;BME280;10993;52.510;13.456;2023-03-23T07:20:59;57549.00;;;-146.93;85.71
21664;BME280;10993;52.510;13.456;2023-03-23T07:26:00;56593.19;;;-146.93;85.87
21664;BME280;10993;52.510;13.456;2023-03-23T07:31:00;56633.69;;;-146.93;85.77
21664;BME280;10993;52.510;13.456;2023-03-23T07:36:03;56645.81;;;-146.93;85.76
21664;BME280;10993;52.510;13.456;2023-03-23T07:41:04;56672.16;;;-146.93;85.96
21664;BME280;10993;52.510;13.456;2023-03-23T07:46:04;56572.94;;;-146.93;86.10
21664;BME280;10993;52.510;13.456;2023-03-23T07:51:06;56605.34;;;-146.93;85.80
21664;BME280;10993;52.510;13.456;2023-03-23T07:56:08;56668.09;;;-146.93;84.82
21664;BME280;10993;52.510;13.456;2023-03-23T08:01:09;56655.94;;;-146.93;85.69
21664;BME280;10993;52.510;13.456;2023-03-23T08:06:10;56623.56;;;-146.93;85.88
21664;BME280;10993;52.510;13.456;2023-03-23T08:11:11;56690.38;;;-146.93;85.96
21664;BME280;10993;52.510;13.456;2023-03-23T08:16:12;56682.28;;;-146.93;84.74
21664;BME280;10993;52.510;13.456;2023-03-23T08:21:14;56664.06;;;-146.93;83.38
21664;BME280;10993;52.510;13.456;2023-03-23T08:26:15;56668.09;;;-146.93;81.18
21664;BME280;10993;52.510;13.456;2023-03-23T08:31:16;56720.75;;;-146.93;81.84
21664;BME280;10993;52.510;13.456;2023-03-23T08:36:18;56769.34;;;-146.93;81.33
21664;BME280;10993;52.510;13.456;2023-03-23T08:41:19;56716.69;;;-146.93;80.03
21664;BME280;10993;52.510;13.456;2023-03-23T08:46:19;56708.59;;;-146.93;79.91
21664;BME280;10993;52.510;13.456;2023-03-23T08:51:21;56777.44;;;-146.93;79.25
21664;BME280;10993;52.510;13.456;2023-03-23T08:56:21;56664.06;;;-146.93;77.50
21664;BME280;10993;52.510;13.456;2023-03-23T09:01:22;56828.06;;;-146.93;74.82
21664;BME280;10993;52.510;13.456;2023-03-23T09:06:24;56848.31;;;-146.93;72.75
21664;BME280;10993;52.510;13.456;2023-03-23T09:11:25;56937.41;;;-146.93;69.33
21664;BME280;10993;52.510;13.456;2023-03-23T09:16:25;56971.81;;;-146.93;66.97
21664;BME280;10993;52.510;13.456;2023-03-23T09:21:28;56828.06;;;-146.93;67.08
21664;BME280;10993;52.510;13.456;2023-03-23T09:26:30;56941.44;;;-146.93;67.39
21664;BME280;10993;52.510;13.456;2023-03-23T09:31:30;56933.34;;;-146.93;67.28
21664;BME280;10993;52.510;13.456;2023-03-23T09:36:33;57075.09;;;-146.93;65.59
21664;BME280;10993;52.510;13.456;2023-03-23T09:41:47;57125.72;;;-146.93;60.31
21664;BME280;10993;52.510;13.456;2023-03-23T09:46:56;57285.72;;;-146.93;54.95
21664;BME280;10993;52.510;13.456;2023-03-23T09:52:04;57409.25;;;-146.93;51.20
21664;BME280;10993;52.510;13.456;2023-03-23T09:57:16;57467.97;;;-146.93;49.20
21664;BME280;10993;52.510;13.456;2023-03-23T10:02:26;57447.72;;;-146.93;49.48
21664;BME280;10993;52.510;13.456;2023-03-23T10:07:28;57391.00;;;-146.93;50.22
21664;BME280;10993;52.510;13.456;2023-03-23T10:12:35;57291.78;;;-146.93;52.62
21664;BME280;10993;52.510;13.456;2023-03-23T10:17:41;57249.25;;;-146.93;53.49
21664;BME280;10993;52.510;13.456;2023-03-23T10:22:47;57287.72;;;-146.93;53.22
21664;BME280;10993;52.510;13.456;2023-03-23T10:27:54;57322.16;;;-146.93;50.19
21664;BME280;10993;52.510;13.456;2023-03-23T10:33:02;57314.06;;;-146.93;49.40
21664;BME280;10993;52.510;13.456;2023-03-23T10:38:11;57411.28;;;-146.93;47.45
21664;BME280;10993;52.510;13.456;2023-03-23T10:43:12;58606.34;;;-146.93;47.06
21664;BME280;10993;52.510;13.456;2023-03-23T10:48:15;57389.00;;;-146.93;46.66
21664;BME280;10993;52.510;13.456;2023-03-23T10:53:23;57328.25;;;-146.93;47.87
21664;BME280;10993;52.510;13.456;2023-03-23T10:58:26;57364.69;;;-146.93;48.48
21664;BME280;10993;52.510;13.456;2023-03-23T11:03:39;57295.84;;;-146.93;46.21
21664;BME280;10993;52.510;13.456;2023-03-23T11:08:51;57202.69;;;-146.93;47.19
21664;BME280;10993;52.510;13.456;2023-03-23T11:13:57;57210.78;;;-146.93;47.62
21664;BME280;10993;52.510;13.456;2023-03-23T11:18:59;57204.69;;;-146.93;48.17
21664;BME280;10993;52.510;13.456;2023-03-23T11:24:03;57176.34;;;-146.93;48.50
21664;BME280;10993;52.510;13.456;2023-03-23T11:29:06;57360.63;;;-146.93;46.30
21664;BME280;10993;52.510;13.456;2023-03-23T11:34:15;57382.91;;;-146.93;45.30
21664;BME280;10993;52.510;13.456;2023-03-23T11:39:24;57344.44;;;-146.93;45.23
21664;BME280;10993;52.510;13.456;2023-03-23T11:44:33;57245.22;;;-146.93;44.89
21664;BME280;10993;52.510;13.456;2023-03-23T11:49:41;57757.59;;;-146.93;43.29
21664;BME280;10993;52.510;13.456;2023-03-23T11:54:47;57553.03;;;-146.93;41.42
21664;BME280;10993;52.510;13.456;2023-03-23T11:59:50;57508.47;;;-146.93;41.49
21664;BME280;10993;52.510;13.456;2023-03-23T12:05:11;57496.31;;;-146.93;41.80
21664;BME280;10993;52.510;13.456;2023-03-23T12:10:25;57470.00;;;-146.93;41.19
21664;BME280;10993;52.510;13.456;2023-03-23T12:15:32;57502.41;;;-146.93;40.93
21664;BME280;10993;52.510;13.456;2023-03-23T12:20:42;57502.41;;;-146.93;41.09
21664;BME280;10993;52.510;13.456;2023-03-23T12:26:03;57500.38;;;-146.93;40.93
21664;BME280;10993;52.510;13.456;2023-03-23T12:31:14;57382.91;;;-146.93;41.21
21664;BME280;10993;52.510;13.456;2023-03-23T12:36:25;57389.00;;;-146.93;41.80
21664;BME280;10993;52.510;13.456;2023-03-23T12:41:37;57370.75;;;-146.93;42.29
21664;BME280;10993;52.510;13.456;2023-03-23T12:46:50;57338.38;;;-146.93;41.60
21664;BME280;10993;52.510;13.456;2023-03-23T12:51:58;57342.41;;;-146.93;42.18
21664;BME280;10993;52.510;13.456;2023-03-23T12:57:08;57403.16;;;-146.93;42.02
21664;BME280;10993;52.510;13.456;2023-03-23T13:02:18;57447.72;;;-146.93;41.90
21664;BME280;10993;52.510;13.456;2023-03-23T13:07:22;57532.78;;;-146.93;40.09
21664;BME280;10993;52.510;13.456;2023-03-23T13:12:26;57567.22;;;-146.93;39.04
21664;BME280;10993;52.510;13.456;2023-03-23T13:17:38;57617.84;;;-146.93;38.89
21664;BME280;10993;52.510;13.456;2023-03-23T13:22:44;57551.00;;;-146.93;38.94
21664;BME280;10993;52.510;13.456;2023-03-23T13:27:57;57583.41;;;-146.93;38.59
21664;BME280;10993;52.510;13.456;2023-03-23T13:33:03;57478.09;;;-146.93;38.43
21664;BME280;10993;52.510;13.456;2023-03-23T13:38:12;57516.59;;;-146.93;39.12
21664;BME280;10993;52.510;13.456;2023-03-23T13:43:25;57484.19;;;-146.93;38.83
21664;BME280;10993;52.510;13.456;2023-03-23T13:48:25;57455.81;;;-146.93;38.18
21664;BME280;10993;52.510;13.456;2023-03-23T13:53:28;57419.38;;;-146.93;39.05
21664;BME280;10993;52.510;13.456;2023-03-23T13:58:44;57445.69;;;-146.93;37.90
21664;BME280;10993;52.510;13.456;2023-03-23T14:03:47;57409.25;;;-146.93;37.85
21664;BME280;10993;52.510;13.456;2023-03-23T14:08:52;57409.25;;;-146.93;37.90
21664;BME280;10993;52.510;13.456;2023-03-23T14:14:03;57445.69;;;-146.93;36.86
21664;BME280;10993;52.510;13.456;2023-03-23T14:19:14;57494.31;;;-146.93;36.01
21664;BME280;10993;52.510;13.456;2023-03-23T14:24:19;57443.66;;;-146.93;36.79
21664;BME280;10993;52.510;13.456;2023-03-23T14:29:24;57447.72;;;-146.93;36.39
21664;BME280;10993;52.510;13.456;2023-03-23T14:34:27;57407.22;;;-146.93;37.46
21664;BME280;10993;52.510;13.456;2023-03-23T14:39:30;57346.47;;;-146.93;37.94
21664;BME280;10993;52.510;13.456;2023-03-23T14:44:36;57285.72;;;-146.93;38.72
21664;BME280;10993;52.510;13.456;2023-03-23T14:49:40;57597.59;;;-146.93;39.44
21664;BME280;10993;52.510;13.456;2023-03-23T14:54:42;57152.06;;;-146.93;39.52
21664;BME280;10993;52.510;13.456;2023-03-23T14:59:47;57174.31;;;-146.93;41.38
21664;BME280;10993;52.510;13.456;2023-03-23T15:04:50;57109.53;;;-146.93;42.10
21664;BME280;10993;52.510;13.456;2023-03-23T15:09:52;57164.19;;;-146.93;43.04
21664;BME280;10993;52.510;13.456;2023-03-23T15:14:56;57271.53;;;-146.93;41.99
21664;BME280;10993;52.510;13.456;2023-03-23T15:20:07;57297.84;;;-146.93;41.68
21664;BME280;10993;52.510;13.456;2023-03-23T15:25:11;57273.56;;;-146.93;41.85
21664;BME280;10993;52.510;13.456;2023-03-23T15:30:15;57239.13;;;-146.93;41.96
21664;BME280;10993;52.510;13.456;2023-03-23T15:35:19;57190.53;;;-146.93;42.38
21664;BME280;10993;52.510;13.456;2023-03-23T15:40:22;57190.53;;;-146.93;42.77
21664;BME280;10993;52.510;13.456;2023-03-23T15:45:26;57156.09;;;-146.93;41.33
21664;BME280;10993;52.510;13.456;2023-03-23T15:50:34;57158.13;;;-146.93;39.74
21664;BME280;10993;52.510;13.456;2023-03-23T15:55:37;57107.50;;;-146.93;40.09
21664;BME280;10993;52.510;13.456;2023-03-23T16:00:40;56921.22;;;-146.93;40.18
21664;BME280;10993;52.510;13.456;2023-03-23T16:05:41;57172.31;;;-146.93;40.00
21664;BME280;10993;52.510;13.456;2023-03-23T16:10:44;57188.50;;;-146.93;39.71
21664;BME280;10993;52.510;13.456;2023-03-23T16:15:46;57154.06;;;-146.93;39.56
21664;BME280;10993;52.510;13.456;2023-03-23T16:20:48;57216.84;;;-146.93;38.81
21664;BME280;10993;52.510;13.456;2023-03-23T16:25:52;57152.06;;;-146.93;38.27
21664;BME280;10993;52.510;13.456;2023-03-23T16:30:53;57129.78;;;-146.93;38.03
21664;BME280;10993;52.510;13.456;2023-03-23T16:35:57;57723.16;;;-146.93;38.55
21664;BME280;10993;52.510;13.456;2023-03-23T16:40:58;57062.94;;;-146.93;38.82
21664;BME280;10993;52.510;13.456;2023-03-23T16:45:59;57099.41;;;-146.93;39.49
21664;BME280;10993;52.510;13.456;2023-03-23T16:51:00;57135.84;;;-146.93;39.63
21664;BME280;10993;52.510;13.456;2023-03-23T16:56:00;57071.06;;;-146.93;40.54
21664;BME280;10993;52.510;13.456;2023-03-23T17:01:02;57067.00;;;-146.93;43.62
21664;BME280;10993;52.510;13.456;2023-03-23T17:06:03;57073.06;;;-146.93;46.77
21664;BME280;10993;52.510;13.456;2023-03-23T17:11:05;57006.25;;;-146.93;48.29
21664;BME280;10993;52.510;13.456;2023-03-23T17:16:07;56963.72;;;-146.93;50.64
21664;BME280;10993;52.510;13.456;2023-03-23T17:21:08;56923.22;;;-146.93;52.70
21664;BME280;10993;52.510;13.456;2023-03-23T17:26:08;56882.72;;;-146.93;54.78
21664;BME280;10993;52.510;13.456;2023-03-23T17:31:10;56900.97;;;-146.93;55.72
21664;BME280;10993;52.510;13.456;2023-03-23T17:36:10;56913.09;;;-146.93;55.69
21664;BME280;10993;52.510;13.456;2023-03-23T17:41:11;56913.09;;;-146.93;56.40
21664;BME280;10993;52.510;13.456;2023-03-23T17:46:13;56917.16;;;-146.93;58.97
21664;BME280;10993;52.510;13.456;2023-03-23T17:51:13;56807.81;;;-146.93;66.76
21664;BME280;10993;52.510;13.456;2023-03-23T17:56:14;56726.81;;;-146.93;70.06
21664;BME280;10993;52.510;13.456;2023-03-23T18:01:15;56799.72;;;-146.93;71.71
21664;BME280;10993;52.510;13.456;2023-03-23T18:06:16;56747.06;;;-146.93;72.38
21664;BME280;10993;52.510;13.456;2023-03-23T18:11:16;56743.03;;;-146.93;73.76
21664;BME280;10993;52.510;13.456;2023-03-23T18:16:18;56682.28;;;-146.93;74.15
21664;BME280;10993;52.510;13.456;2023-03-23T18:21:18;56751.13;;;-146.93;73.74
21664;BME280;10993;52.510;13.456;2023-03-23T18:26:19;56734.91;;;-146.93;72.59
21664;BME280;10993;52.510;13.456;2023-03-23T18:31:22;56795.66;;;-146.93;73.00
21664;BME280;10993;52.510;13.456;2023-03-23T18:36:24;56734.91;;;-146.93;71.64
21664;BME280;10993;52.510;13.456;2023-03-23T18:41:25;56738.97;;;-146.93;72.47
21664;BME280;10993;52.510;13.456;2023-03-23T18:46:27;56694.41;;;-146.93;75.96
21664;BME280;10993;52.510;13.456;2023-03-23T18:51:27;56751.13;;;-146.93;78.55
21664;BME280;10993;52.510;13.456;2023-03-23T18:56:30;56743.03;;;-146.93;79.04
21664;BME280;10993;52.510;13.456;2023-03-23T19:01:31;56706.56;;;-146.93;80.47
21664;BME280;10993;52.510;13.456;2023-03-23T19:06:32;56745.03;;;-146.93;81.63
21664;BME280;10993;52.510;13.456;2023-03-23T19:11:33;56710.63;;;-146.93;81.23
21664;BME280;10993;52.510;13.456;2023-03-23T19:16:35;56743.03;;;-146.93;81.74
21664;BME280;10993;52.510;13.456;2023-03-23T19:21:36;56791.63;;;-146.93;81.49
21664;BME280;10993;52.510;13.456;2023-03-23T19:26:41;56738.97;;;-146.93;80.63
21664;BME280;10993;52.510;13.456;2023-03-23T19:31:44;56649.88;;;-146.93;80.70
21664;BME280;10993;52.510;13.456;2023-03-23T19:36:44;56698.47;;;-146.93;80.03
21664;BME280;10993;52.510;13.456;2023-03-23T19:41:46;56745.03;;;-146.93;79.31
21664;BME280;10993;52.510;13.456;2023-03-23T19:46:48;56741.00;;;-146.93;79.59
21664;BME280;10993;52.510;13.456;2023-03-23T19:51:48;56751.13;;;-146.93;79.82
21664;BME280;10993;52.510;13.456;2023-03-23T19:56:48;56738.97;;;-146.93;79.40
21664;BME280;10993;52.510;13.456;2023-03-23T20:01:50;56755.16;;;-146.93;79.64
21664;BME280;10993;52.510;13.456;2023-03-23T20:06:54;56694.41;;;-146.93;79.89
21664;BME280;10993;52.510;13.456;2023-03-23T20:11:54;56698.47;;;-146.93;80.01
21664;BME280;10993;52.510;13.456;2023-03-23T20:16:56;56718.72;;;-146.93;79.98
21664;BME280;10993;52.510;13.456;2023-03-23T20:21:57;56720.75;;;-146.93;80.03
21664;BME280;10993;52.510;13.456;2023-03-23T20:26:57;56696.44;;;-146.93;79.33
21664;BME280;10993;52.510;13.456;2023-03-23T20:31:59;56670.13;;;-146.93;78.90
21664;BME280;10993;52.510;13.456;2023-03-23T20:36:59;56917.16;;;-146.93;80.08
21664;BME280;10993;52.510;13.456;2023-03-23T20:42:01;56773.38;;;-146.93;78.83
21664;BME280;10993;52.510;13.456;2023-03-23T20:47:04;56741.00;;;-146.93;78.48
21664;BME280;10993;52.510;13.456;2023-03-23T20:52:06;56712.66;;;-146.93;79.16
21664;BME280;10993;52.510;13.456;2023-03-23T20:57:07;56724.78;;;-146.93;79.73
21664;BME280;10993;52.510;13.456;2023-03-23T21:02:13;56682.28;;;-146.93;79.94
21664;BME280;10993;52.510;13.456;2023-03-23T21:07:14;56749.09;;;-146.93;80.03
21664;BME280;10993;52.510;13.456;2023-03-23T21:12:15;56678.22;;;-146.93;79.98
21664;BME280;10993;52.510;13.456;2023-03-23T21:17:16;56730.88;;;-146.93;80.67
21664;BME280;10993;52.510;13.456;2023-03-23T21:22:17;56641.78;;;-146.93;81.51
21664;BME280;10993;52.510;13.456;2023-03-23T21:27:18;56724.78;;;-146.93;81.54
21664;BME280;10993;52.510;13.456;2023-03-23T21:32:19;56698.47;;;-146.93;81.46
21664;BME280;10993;52.510;13.456;2023-03-23T21:37:20;56704.53;;;-146.93;81.15
21664;BME280;10993;52.510;13.456;2023-03-23T21:42:20;56702.53;;;-146.93;81.53
21664;BME280;10993;52.510;13.456;2023-03-23T21:47:30;56702.53;;;-146.93;82.06
21664;BME280;10993;52.510;13.456;2023-03-23T21:52:31;56698.47;;;-146.93;83.00
21664;BME280;10993;52.510;13.456;2023-03-23T21:57:32;56635.72;;;-146.93;83.85
21664;BME280;10993;52.510;13.456;2023-03-23T22:02:34;56666.06;;;-146.93;84.73
21664;BME280;10993;52.510;13.456;2023-03-23T22:07:35;56649.88;;;-146.93;84.32
21664;BME280;10993;52.510;13.456;2023-03-23T22:12:38;56668.09;;;-146.93;84.61
21664;BME280;10993;52.510;13.456;2023-03-23T22:17:40;56672.16;;;-146.93;85.25
21664;BME280;10993;52.510;13.456;2023-03-23T22:22:40;56637.72;;;-146.93;85.87
21664;BME280;10993;52.510;13.456;2023-03-23T22:27:41;56635.72;;;-146.93;85.10
21664;BME280;10993;52.510;13.456;2023-03-23T22:32:43;56617.47;;;-146.93;84.69
21664;BME280;10993;52.510;13.456;2023-03-23T22:37:43;56574.97;;;-146.93;85.25
21664;BME280;10993;52.510;13.456;2023-03-23T22:42:43;56609.38;;;-146.93;85.92
21664;BME280;10993;52.510;13.456;2023-03-23T22:47:45;56625.59;;;-146.93;85.90
21664;BME280;10993;52.510;13.456;2023-03-23T22:52:46;56625.59;;;-146.93;85.99
21664;BME280;10993;52.510;13.456;2023-03-23T22:57:46;56621.53;;;-146.93;86.32
21664;BME280;10993;52.510;13.456;2023-03-23T23:02:48;56615.47;;;-146.93;86.55
21664;BME280;10993;52.510;13.456;2023-03-23T23:07:48;56572.94;;;-146.93;86.60
21664;BME280;10993;52.510;13.456;2023-03-23T23:12:49;56605.34;;;-146.93;85.98
21664;BME280;10993;52.510;13.456;2023-03-23T23:17:50;56617.47;;;-146.93;85.39
21664;BME280;10993;52.510;13.456;2023-03-23T23:22:51;57172.31;;;-146.93;84.73
21664;BME280;10993;52.510;13.456;2023-03-23T23:27:51;56595.22;;;-146.93;84.20
21664;BME280;10993;52.510;13.456;2023-03-23T23:32:54;56615.47;;;-146.93;83.42
21664;BME280;10993;52.510;13.456;2023-03-23T23:37:55;56593.19;;;-146.93;83.32
21664;BME280;10993;52.510;13.456;2023-03-23T23:42:56;56625.59;;;-146.93;82.53
21664;BME280;10993;52.510;13.456;2023-03-23T23:47:58;56639.75;;;-146.93;82.29
21664;BME280;10993;52.510;13.456;2023-03-23T23:52:58;56631.66;;;-146.93;82.67
21664;BME280;10993;52.510;13.456;2023-03-23T23:57:59;56607.34;;;-146.93;83.29
